Time;durP1;ratioP1;P1;durP2;ratioP2;P2;SDS_P1;SDS_P2;PMS_P1;PMS_P2;Temp;Humidity;BMP_temperature;BMP_pressure;BME280_temperature;BME280_humidity;BME280_pressure;Samples;Min_cycle;Max_cycle;Signal;HPM_P1;HPM_P2
2024/01/23 00:00:29;;;;;;;13.03;3.73;;;;;;;;;;5004541;28;20502;-77
2024/01/23 00:02:56;;;;;;;13.70;3.83;;;;;;;;;;5007384;28;20472;-77
2024/01/23 00:05:24;;;;;;;26.57;4.57;;;;;;;;;;5008381;28;20829;-77
2024/01/23 00:07:50;;;;;;;12.03;3.57;;;;;;;;;;5007861;28;20470;-77
2024/01/23 00:10:19;;;;;;;13.47;3.50;;;;;;;;;;5006911;28;20445;-83
2024/01/23 00:12:46;;;;;;;15.13;4.40;;;;;;;;;;5006489;28;20450;-77
2024/01/23 00:15:13;;;;;;;19.67;5.20;;;;;;;;;;5004724;28;20443;-77
2024/01/23 00:17:41;;;;;;;17.73;3.50;;;;;;;;;;5005363;28;20468;-77
2024/01/23 00:20:08;;;;;;;9.70;2.23;;;;;;;;;;5005831;28;20447;-79
2024/01/23 00:22:35;;;;;;;9.37;2.13;;;;;;;;;;5004020;28;20449;-77
2024/01/23 00:25:02;;;;;;;9.67;2.17;;;;;;;;;;5003007;28;20454;-78
2024/01/23 00:27:29;;;;;;;5.83;1.60;;;;;;;;;;5004573;28;20485;-77
2024/01/23 00:29:56;;;;;;;7.70;1.60;;;;;;;;;;5003265;28;20469;-77
2024/01/23 00:32:23;;;;;;;8.37;1.50;;;;;;;;;;5005656;28;20474;-77
2024/01/23 00:34:50;;;;;;;7.63;1.53;;;;;;;;;;5000717;28;20474;-78
2024/01/23 00:37:17;;;;;;;11.07;2.10;;;;;;;;;;5004230;28;20445;-77
2024/01/23 00:39:45;;;;;;;5.10;1.70;;;;;;;;;;5003125;28;20553;-79
2024/01/23 00:42:11;;;;;;;4.57;1.33;;;;;;;;;;5001930;28;20467;-77
2024/01/23 00:44:37;;;;;;;4.23;1.37;;;;;;;;;;5004425;28;20485;-78
2024/01/23 00:47:06;;;;;;;5.10;1.77;;;;;;;;;;5001913;28;21008;-77
2024/01/23 00:49:32;;;;;;;3.90;0.93;;;;;;;;;;5004372;28;20462;-77
2024/01/23 00:51:59;;;;;;;2.23;1.23;;;;;;;;;;5003348;28;20473;-77
2024/01/23 00:54:25;;;;;;;2.53;1.00;;;;;;;;;;5002741;28;20496;-78
2024/01/23 00:56:53;;;;;;;10.10;2.00;;;;;;;;;;5003947;28;20450;-77
2024/01/23 00:59:19;;;;;;;4.47;1.60;;;;;;;;;;5005184;28;20472;-77
2024/01/23 01:01:46;;;;;;;8.97;1.90;;;;;;;;;;5003266;28;20557;-79
2024/01/23 01:04:12;;;;;;;4.47;1.70;;;;;;;;;;5005061;28;20470;-77
2024/01/23 01:06:38;;;;;;;6.77;3.00;;;;;;;;;;5003556;28;20488;-77
2024/01/23 01:09:06;;;;;;;10.90;3.10;;;;;;;;;;5004101;28;20470;-77
2024/01/23 01:11:32;;;;;;;13.43;2.50;;;;;;;;;;5003600;28;20493;-76
2024/01/23 01:14:00;;;;;;;11.80;3.30;;;;;;;;;;5003829;28;20557;-77
2024/01/23 01:16:27;;;;;;;9.80;2.50;;;;;;;;;;5004981;28;20526;-77
2024/01/23 01:18:53;;;;;;;10.30;3.43;;;;;;;;;;5006655;28;20901;-76
2024/01/23 01:21:20;;;;;;;22.20;3.20;;;;;;;;;;5002573;28;20471;-77
2024/01/23 01:23:46;;;;;;;8.37;2.23;;;;;;;;;;5005293;28;20469;-79
2024/01/23 01:26:14;;;;;;;8.30;3.00;;;;;;;;;;5004951;28;20447;-77
2024/01/23 01:28:40;;;;;;;21.10;3.20;;;;;;;;;;5004642;28;20560;-78
2024/01/23 01:31:08;;;;;;;9.50;3.47;;;;;;;;;;5002690;28;20458;-77
2024/01/23 01:33:35;;;;;;;11.70;3.20;;;;;;;;;;5003818;28;20519;-77
2024/01/23 01:36:02;;;;;;;11.53;2.93;;;;;;;;;;5003969;28;20943;-77
2024/01/23 01:38:28;;;;;;;12.30;3.67;;;;;;;;;;5004578;28;20474;-79
2024/01/23 01:40:57;;;;;;;19.13;3.90;;;;;;;;;;5001451;28;20847;-77
2024/01/23 01:43:25;;;;;;;16.23;3.13;;;;;;;;;;5005837;28;20874;-80
2024/01/23 01:45:59;;;;;;;12.57;3.80;;;;;;;;;;5002479;28;20505;-80
2024/01/23 01:48:27;;;;;;;15.90;4.17;;;;;;;;;;4986904;28;20488;-76
2024/01/23 01:50:54;;;;;;;10.10;2.83;;;;;;;;;;5003071;28;20472;-77
2024/01/23 01:53:21;;;;;;;14.43;4.00;;;;;;;;;;5004161;28;20484;-77
2024/01/23 01:55:47;;;;;;;12.50;3.63;;;;;;;;;;5005491;28;20450;-77
2024/01/23 01:58:15;;;;;;;11.97;4.17;;;;;;;;;;5006250;28;20470;-77
2024/01/23 02:00:43;;;;;;;20.50;4.00;;;;;;;;;;5006384;28;20477;-77
2024/01/23 02:03:10;;;;;;;10.37;2.80;;;;;;;;;;5002902;28;20457;-76
2024/01/23 02:05:38;;;;;;;10.70;3.27;;;;;;;;;;5004435;28;20964;-77
2024/01/23 02:08:05;;;;;;;18.07;3.77;;;;;;;;;;5004931;28;20981;-77
2024/01/23 02:10:31;;;;;;;21.83;3.90;;;;;;;;;;5005944;28;20493;-77
2024/01/23 02:12:58;;;;;;;18.97;4.50;;;;;;;;;;5007922;28;20529;-77
2024/01/23 02:15:24;;;;;;;12.77;3.30;;;;;;;;;;5003405;28;20987;-77
2024/01/23 02:17:50;;;;;;;10.93;3.50;;;;;;;;;;5001965;28;20469;-77
2024/01/23 02:20:17;;;;;;;19.20;4.20;;;;;;;;;;5004395;28;20448;-77
2024/01/23 02:22:45;;;;;;;18.83;4.90;;;;;;;;;;5002536;28;20441;-82
2024/01/23 02:25:14;;;;;;;15.47;4.77;;;;;;;;;;5003174;28;20444;-78
2024/01/23 02:27:41;;;;;;;14.97;4.23;;;;;;;;;;5006238;28;20485;-77
2024/01/23 02:30:08;;;;;;;13.57;4.40;;;;;;;;;;5006575;28;20529;-78
2024/01/23 02:32:35;;;;;;;9.00;3.37;;;;;;;;;;5001816;28;20439;-78
2024/01/23 02:35:02;;;;;;;18.33;3.20;;;;;;;;;;5006243;28;20477;-80
2024/01/23 02:37:29;;;;;;;19.20;4.47;;;;;;;;;;5004675;28;20525;-77
2024/01/23 02:39:55;;;;;;;18.43;3.70;;;;;;;;;;5005029;28;20843;-79
2024/01/23 02:42:24;;;;;;;11.10;3.70;;;;;;;;;;5001809;28;20458;-77
2024/01/23 02:44:52;;;;;;;11.63;3.63;;;;;;;;;;5006269;28;20465;-77
2024/01/23 02:47:20;;;;;;;14.90;3.30;;;;;;;;;;5003239;28;20481;-78
2024/01/23 02:49:46;;;;;;;15.03;3.00;;;;;;;;;;5004473;28;20497;-77
2024/01/23 02:52:13;;;;;;;12.00;4.03;;;;;;;;;;5003272;28;20469;-80
2024/01/23 02:54:39;;;;;;;14.60;3.17;;;;;;;;;;5004739;28;20462;-77
2024/01/23 02:57:06;;;;;;;32.63;4.47;;;;;;;;;;5005014;28;20810;-81
2024/01/23 02:59:34;;;;;;;17.33;4.10;;;;;;;;;;5005663;28;21027;-77
2024/01/23 03:02:00;;;;;;;14.53;3.53;;;;;;;;;;5005367;28;20465;-77
2024/01/23 03:04:27;;;;;;;17.40;4.43;;;;;;;;;;5005491;28;20468;-77
2024/01/23 03:06:53;;;;;;;6.67;3.20;;;;;;;;;;5003640;28;20446;-80
2024/01/23 03:09:20;;;;;;;28.33;5.00;;;;;;;;;;5006428;28;20493;-77
2024/01/23 03:11:46;;;;;;;17.80;4.33;;;;;;;;;;5004788;28;20988;-77
2024/01/23 03:14:13;;;;;;;16.10;3.30;;;;;;;;;;5005687;28;20466;-76
2024/01/23 03:16:41;;;;;;;12.03;3.57;;;;;;;;;;5006861;28;20444;-77
2024/01/23 03:19:07;;;;;;;14.30;3.40;;;;;;;;;;5004732;28;20558;-77
2024/01/23 03:21:33;;;;;;;13.83;3.30;;;;;;;;;;5005459;28;20461;-79
2024/01/23 03:24:01;;;;;;;14.23;3.00;;;;;;;;;;5004019;28;20596;-78
2024/01/23 03:26:27;;;;;;;18.20;4.90;;;;;;;;;;5002931;28;20516;-78
2024/01/23 03:28:55;;;;;;;13.73;3.63;;;;;;;;;;5001884;28;20463;-78
2024/01/23 03:31:22;;;;;;;18.53;3.70;;;;;;;;;;5001560;28;20932;-78
2024/01/23 03:33:49;;;;;;;13.40;3.70;;;;;;;;;;5005034;28;20554;-77
2024/01/23 03:36:18;;;;;;;13.57;3.43;;;;;;;;;;5001895;28;20529;-77
2024/01/23 03:38:44;;;;;;;15.77;3.80;;;;;;;;;;5001760;28;20462;-76
2024/01/23 03:41:10;;;;;;;15.07;4.60;;;;;;;;;;5004794;28;20544;-79
2024/01/23 03:43:37;;;;;;;19.20;3.87;;;;;;;;;;5005165;28;20465;-79
2024/01/23 03:46:05;;;;;;;29.17;7.00;;;;;;;;;;5001907;28;20484;-77
2024/01/23 03:48:31;;;;;;;15.70;3.47;;;;;;;;;;5003136;28;20479;-79
2024/01/23 03:50:59;;;;;;;24.80;6.53;;;;;;;;;;5007531;28;20462;-77
2024/01/23 03:53:25;;;;;;;17.53;3.80;;;;;;;;;;5006446;28;21808;-78
2024/01/23 03:55:53;;;;;;;18.03;5.03;;;;;;;;;;5006252;28;20441;-77
2024/01/23 03:58:20;;;;;;;15.87;4.60;;;;;;;;;;5004776;28;20480;-78
2024/01/23 04:00:46;;;;;;;17.83;4.53;;;;;;;;;;5010740;28;20476;-77
2024/01/23 04:03:13;;;;;;;19.37;5.13;;;;;;;;;;5006447;28;20579;-77
2024/01/23 04:05:39;;;;;;;18.03;3.97;;;;;;;;;;5006838;28;20448;-77
2024/01/23 04:08:09;;;;;;;16.43;4.20;;;;;;;;;;5005085;28;20467;-77
2024/01/23 04:10:35;;;;;;;15.50;4.30;;;;;;;;;;5006496;28;20466;-79
2024/01/23 04:13:02;;;;;;;15.00;3.57;;;;;;;;;;5006207;28;20477;-78
2024/01/23 04:15:30;;;;;;;22.43;4.67;;;;;;;;;;5008949;28;20449;-77
2024/01/23 04:17:56;;;;;;;9.80;3.37;;;;;;;;;;5006178;28;20912;-79
2024/01/23 04:20:23;;;;;;;25.07;3.97;;;;;;;;;;5005466;28;20451;-77
2024/01/23 04:22:51;;;;;;;13.63;4.40;;;;;;;;;;5004463;28;20474;-78
2024/01/23 04:25:19;;;;;;;16.03;3.70;;;;;;;;;;5004077;28;20441;-84
2024/01/23 04:27:45;;;;;;;19.40;3.70;;;;;;;;;;5004090;28;20580;-77
2024/01/23 04:30:12;;;;;;;14.50;3.70;;;;;;;;;;5005962;28;20476;-78
2024/01/23 04:32:41;;;;;;;20.10;5.17;;;;;;;;;;5006309;28;20448;-77
2024/01/23 04:35:07;;;;;;;9.10;3.97;;;;;;;;;;5006194;28;20961;-77
2024/01/23 04:37:34;;;;;;;12.27;4.17;;;;;;;;;;5006749;28;20446;-77
2024/01/23 04:40:01;;;;;;;20.03;5.53;;;;;;;;;;5005444;28;20935;-77
2024/01/23 04:42:29;;;;;;;26.57;5.50;;;;;;;;;;5004859;28;20474;-77
2024/01/23 04:44:55;;;;;;;19.67;4.47;;;;;;;;;;5003343;28;20553;-77
2024/01/23 04:47:23;;;;;;;14.83;3.90;;;;;;;;;;5007324;28;20456;-79
2024/01/23 04:49:49;;;;;;;10.90;4.10;;;;;;;;;;5008286;28;20480;-78
2024/01/23 04:52:16;;;;;;;25.53;5.33;;;;;;;;;;5007022;28;20846;-77
2024/01/23 04:54:42;;;;;;;12.47;3.67;;;;;;;;;;5005270;28;20473;-77
2024/01/23 04:57:09;;;;;;;16.43;4.80;;;;;;;;;;5006888;28;20456;-77
2024/01/23 04:59:37;;;;;;;18.03;4.50;;;;;;;;;;5003740;28;20533;-80
2024/01/23 05:02:05;;;;;;;17.20;6.63;;;;;;;;;;5004686;28;20471;-77
2024/01/23 05:04:31;;;;;;;19.97;3.50;;;;;;;;;;5005025;28;20549;-79
2024/01/23 05:06:58;;;;;;;16.83;4.03;;;;;;;;;;5005513;28;20458;-77
2024/01/23 05:09:25;;;;;;;20.67;4.83;;;;;;;;;;5004912;28;20477;-77
2024/01/23 05:11:51;;;;;;;13.80;3.90;;;;;;;;;;5003580;28;20462;-79
2024/01/23 05:14:18;;;;;;;17.83;5.00;;;;;;;;;;5004816;28;21081;-86
2024/01/23 05:16:46;;;;;;;16.27;3.90;;;;;;;;;;5005692;28;20452;-77
2024/01/23 05:19:12;;;;;;;20.67;5.13;;;;;;;;;;5006155;28;20462;-76
2024/01/23 05:21:39;;;;;;;16.47;4.90;;;;;;;;;;5004427;28;20936;-77
2024/01/23 05:24:05;;;;;;;18.67;3.73;;;;;;;;;;5003224;28;20477;-77
2024/01/23 05:26:34;;;;;;;21.80;5.70;;;;;;;;;;5005879;28;20446;-80
2024/01/23 05:29:01;;;;;;;31.67;5.97;;;;;;;;;;5003076;28;20474;-77
2024/01/23 05:31:27;;;;;;;21.43;4.97;;;;;;;;;;5005934;28;20464;-77
2024/01/23 05:33:57;;;;;;;25.90;4.57;;;;;;;;;;5007605;28;20475;-78
2024/01/23 05:36:23;;;;;;;20.17;5.33;;;;;;;;;;5004533;28;20892;-78
2024/01/23 05:38:50;;;;;;;21.07;4.60;;;;;;;;;;5005364;28;20469;-78
2024/01/23 05:41:17;;;;;;;19.10;4.17;;;;;;;;;;5004948;28;20477;-78
2024/01/23 05:43:44;;;;;;;19.10;5.40;;;;;;;;;;5004577;28;20550;-77
2024/01/23 05:46:10;;;;;;;17.03;5.03;;;;;;;;;;5003975;28;20536;-77
2024/01/23 05:48:37;;;;;;;26.00;6.87;;;;;;;;;;5003427;28;20480;-77
2024/01/23 05:51:06;;;;;;;27.30;4.83;;;;;;;;;;5006514;28;20841;-76
2024/01/23 05:53:32;;;;;;;26.87;5.23;;;;;;;;;;5005842;28;20505;-76
2024/01/23 05:56:00;;;;;;;21.80;5.13;;;;;;;;;;5006248;28;20524;-77
2024/01/23 05:58:28;;;;;;;23.93;4.73;;;;;;;;;;5001893;28;20565;-77
2024/01/23 06:00:57;;;;;;;29.87;4.57;;;;;;;;;;5004908;28;20470;-77
2024/01/23 06:03:23;;;;;;;24.83;5.50;;;;;;;;;;5005336;28;20540;-77
2024/01/23 06:05:50;;;;;;;21.30;6.50;;;;;;;;;;5020069;28;20450;-77
2024/01/23 06:08:17;;;;;;;30.00;5.30;;;;;;;;;;5005628;28;20477;-78
2024/01/23 06:10:44;;;;;;;12.83;4.20;;;;;;;;;;5005479;28;20560;-77
2024/01/23 06:13:10;;;;;;;21.93;5.83;;;;;;;;;;5004093;28;20480;-78
2024/01/23 06:15:37;;;;;;;25.93;5.63;;;;;;;;;;5003419;28;20448;-79
2024/01/23 06:18:07;;;;;;;15.67;5.43;;;;;;;;;;5003118;28;20467;-77
2024/01/23 06:20:34;;;;;;;20.83;5.90;;;;;;;;;;5004607;28;20458;-77
2024/01/23 06:23:00;;;;;;;18.60;6.60;;;;;;;;;;5004920;28;20470;-77
2024/01/23 06:25:29;;;;;;;24.43;5.20;;;;;;;;;;5002250;28;20447;-78
2024/01/23 06:27:56;;;;;;;21.47;5.03;;;;;;;;;;5001959;28;21012;-77
2024/01/23 06:30:22;;;;;;;16.97;4.80;;;;;;;;;;5005242;28;20506;-77
2024/01/23 06:32:48;;;;;;;25.77;5.70;;;;;;;;;;5004156;28;20464;-77
2024/01/23 06:35:16;;;;;;;21.17;5.53;;;;;;;;;;5002948;28;20534;-77
2024/01/23 06:37:43;;;;;;;28.53;5.70;;;;;;;;;;5004497;28;20444;-78
2024/01/23 06:40:10;;;;;;;24.43;6.40;;;;;;;;;;5003178;28;20446;-77
2024/01/23 06:42:38;;;;;;;32.37;6.70;;;;;;;;;;5002798;28;20464;-76
2024/01/23 06:45:05;;;;;;;41.37;7.67;;;;;;;;;;5003090;28;20512;-78
2024/01/23 06:47:33;;;;;;;19.63;5.63;;;;;;;;;;5007016;28;20438;-76
2024/01/23 06:49:59;;;;;;;20.63;6.40;;;;;;;;;;5003687;28;20482;-77
2024/01/23 06:52:26;;;;;;;23.30;5.30;;;;;;;;;;5005271;28;20484;-77
2024/01/23 06:54:52;;;;;;;17.33;5.10;;;;;;;;;;5006347;28;21005;-77
2024/01/23 06:57:20;;;;;;;34.20;5.80;;;;;;;;;;5003694;28;20525;-80
2024/01/23 06:59:48;;;;;;;37.23;6.10;;;;;;;;;;5002817;28;21124;-77
2024/01/23 07:02:14;;;;;;;21.97;5.53;;;;;;;;;;5003475;28;20469;-77
2024/01/23 07:04:41;;;;;;;24.40;5.77;;;;;;;;;;5001734;28;20466;-76
2024/01/23 07:07:08;;;;;;;34.63;9.70;;;;;;;;;;5003037;28;20472;-77
2024/01/23 07:09:35;;;;;;;20.57;6.40;;;;;;;;;;5001000;28;20482;-76
2024/01/23 07:12:03;;;;;;;23.13;4.73;;;;;;;;;;5004397;28;21053;-77
2024/01/23 07:14:29;;;;;;;21.03;4.87;;;;;;;;;;5003466;28;20470;-77
2024/01/23 07:16:58;;;;;;;25.40;5.50;;;;;;;;;;5005534;28;20452;-79
2024/01/23 07:19:24;;;;;;;17.67;6.00;;;;;;;;;;5003073;28;20461;-76
2024/01/23 07:21:51;;;;;;;23.43;5.03;;;;;;;;;;5002861;28;21231;-77
2024/01/23 07:24:18;;;;;;;25.60;7.23;;;;;;;;;;5002756;28;20478;-78
2024/01/23 07:26:45;;;;;;;15.47;5.23;;;;;;;;;;5005684;28;20945;-76
2024/01/23 07:29:12;;;;;;;31.77;6.60;;;;;;;;;;5009553;28;20563;-78
2024/01/23 07:31:40;;;;;;;18.80;5.40;;;;;;;;;;5005576;28;20476;-78
2024/01/23 07:34:09;;;;;;;32.00;6.63;;;;;;;;;;5006710;28;20474;-81
2024/01/23 07:36:36;;;;;;;26.90;6.63;;;;;;;;;;5008337;28;20875;-76
2024/01/23 07:39:02;;;;;;;30.53;8.37;;;;;;;;;;5005857;28;20466;-77
2024/01/23 07:41:29;;;;;;;25.03;5.77;;;;;;;;;;5008350;28;20461;-77
2024/01/23 07:43:57;;;;;;;24.77;6.20;;;;;;;;;;5007912;28;20473;-79
2024/01/23 07:46:25;;;;;;;28.53;7.30;;;;;;;;;;5007788;28;20860;-77
2024/01/23 07:48:53;;;;;;;34.47;6.50;;;;;;;;;;5007070;28;20473;-77
2024/01/23 07:51:21;;;;;;;32.90;7.17;;;;;;;;;;5006549;28;20997;-77
2024/01/23 07:53:47;;;;;;;23.53;5.40;;;;;;;;;;5006327;28;20469;-77
2024/01/23 07:56:15;;;;;;;28.73;6.37;;;;;;;;;;5007291;28;20449;-77
2024/01/23 07:58:41;;;;;;;24.97;5.60;;;;;;;;;;5004661;28;20468;-77
2024/01/23 08:01:09;;;;;;;35.27;7.03;;;;;;;;;;5008139;28;20856;-79
2024/01/23 08:03:35;;;;;;;29.97;7.00;;;;;;;;;;5006355;28;20831;-82
2024/01/23 08:06:02;;;;;;;27.00;6.90;;;;;;;;;;5005929;28;20453;-77
2024/01/23 08:08:30;;;;;;;25.43;6.30;;;;;;;;;;5008104;28;20476;-77
2024/01/23 08:10:58;;;;;;;23.70;6.00;;;;;;;;;;5009529;28;20480;-79
2024/01/23 08:13:24;;;;;;;34.70;7.37;;;;;;;;;;5008520;28;20481;-78
2024/01/23 08:15:50;;;;;;;32.87;7.53;;;;;;;;;;5008064;28;20535;-77
2024/01/23 08:18:18;;;;;;;30.20;6.33;;;;;;;;;;5004156;28;20472;-79
2024/01/23 08:20:44;;;;;;;28.50;6.50;;;;;;;;;;5007052;28;20460;-77
2024/01/23 08:23:11;;;;;;;31.50;7.13;;;;;;;;;;5007186;28;20473;-77
2024/01/23 08:25:39;;;;;;;40.43;7.53;;;;;;;;;;5005606;28;20444;-78
2024/01/23 08:28:05;;;;;;;33.60;9.40;;;;;;;;;;5007917;28;20854;-77
2024/01/23 08:30:32;;;;;;;26.37;6.40;;;;;;;;;;5007447;28;20491;-77
2024/01/23 08:32:58;;;;;;;27.90;7.00;;;;;;;;;;5008376;28;20489;-77
2024/01/23 08:35:27;;;;;;;28.63;6.47;;;;;;;;;;5005809;28;20438;-78
2024/01/23 08:37:53;;;;;;;31.33;6.73;;;;;;;;;;5019759;28;20476;-78
2024/01/23 08:40:21;;;;;;;28.20;9.03;;;;;;;;;;5004330;28;20442;-77
2024/01/23 08:42:48;;;;;;;27.00;7.83;;;;;;;;;;5006380;28;20450;-77
2024/01/23 08:45:15;;;;;;;23.10;6.80;;;;;;;;;;5007542;28;21005;-77
2024/01/23 08:47:41;;;;;;;38.60;7.40;;;;;;;;;;5006177;28;20464;-77
2024/01/23 08:50:08;;;;;;;29.03;6.83;;;;;;;;;;5008336;28;20916;-77
2024/01/23 08:52:35;;;;;;;28.87;6.50;;;;;;;;;;5007633;28;20450;-77
2024/01/23 08:55:01;;;;;;;25.70;7.63;;;;;;;;;;5006196;28;20442;-80
2024/01/23 08:57:28;;;;;;;36.73;8.57;;;;;;;;;;5008949;28;20546;-77
2024/01/23 08:59:56;;;;;;;35.87;7.50;;;;;;;;;;5005110;28;20477;-77
2024/01/23 09:02:23;;;;;;;28.13;6.53;;;;;;;;;;5005642;28;20468;-78
2024/01/23 09:04:49;;;;;;;26.97;6.87;;;;;;;;;;5006115;28;21000;-77
2024/01/23 09:07:17;;;;;;;34.27;6.70;;;;;;;;;;5005612;28;20472;-78
2024/01/23 09:09:44;;;;;;;30.70;7.90;;;;;;;;;;5005810;28;20502;-77
2024/01/23 09:12:10;;;;;;;35.13;8.80;;;;;;;;;;5005655;28;20469;-78
2024/01/23 09:14:37;;;;;;;34.90;8.03;;;;;;;;;;5004795;28;20475;-77
2024/01/23 09:17:05;;;;;;;31.13;8.90;;;;;;;;;;5005518;28;20451;-77
2024/01/23 09:19:30;;;;;;;36.43;8.80;;;;;;;;;;5006521;28;20553;-77
2024/01/23 09:21:58;;;;;;;30.43;8.50;;;;;;;;;;5006385;28;20548;-78
2024/01/23 09:24:24;;;;;;;31.80;7.03;;;;;;;;;;5004449;28;20269;-77
2024/01/23 09:26:51;;;;;;;47.70;7.43;;;;;;;;;;5006829;28;20525;-77
2024/01/23 09:29:17;;;;;;;34.03;7.67;;;;;;;;;;5007231;28;20470;-77
2024/01/23 09:31:45;;;;;;;31.57;8.30;;;;;;;;;;5005372;28;20505;-77
2024/01/23 09:34:15;;;;;;;26.07;8.30;;;;;;;;;;5006381;28;20469;-84
2024/01/23 09:36:41;;;;;;;34.40;7.20;;;;;;;;;;5003987;28;20450;-77
2024/01/23 09:39:13;;;;;;;30.20;9.50;;;;;;;;;;5004645;28;20581;-77
2024/01/23 09:41:41;;;;;;;20.73;7.43;;;;;;;;;;5003529;28;20473;-79
2024/01/23 09:44:10;;;;;;;23.83;7.70;;;;;;;;;;5003648;28;20465;-77
2024/01/23 09:46:37;;;;;;;44.57;8.77;;;;;;;;;;5005095;28;20521;-82
2024/01/23 09:49:05;;;;;;;40.40;6.73;;;;;;;;;;5005134;28;20466;-77
2024/01/23 09:51:34;;;;;;;31.33;7.23;;;;;;;;;;5003835;28;21273;-77
2024/01/23 09:54:03;;;;;;;37.97;8.30;;;;;;;;;;5005677;28;20466;-78
2024/01/23 09:56:31;;;;;;;35.13;8.03;;;;;;;;;;5005999;28;20443;-77
2024/01/23 09:58:58;;;;;;;32.60;9.20;;;;;;;;;;5005946;28;20557;-77
2024/01/23 10:01:27;;;;;;;25.90;7.07;;;;;;;;;;5005845;28;20478;-79
2024/01/23 10:03:56;;;;;;;21.03;5.83;;;;;;;;;;5001425;28;20493;-77
2024/01/23 10:06:22;;;;;;;40.27;8.83;;;;;;;;;;5001685;28;20542;-78
2024/01/23 10:08:50;;;;;;;41.30;9.47;;;;;;;;;;5003478;28;20948;-78
2024/01/23 10:11:16;;;;;;;27.20;8.10;;;;;;;;;;5005045;28;20493;-78
2024/01/23 10:13:43;;;;;;;25.33;8.07;;;;;;;;;;5005501;28;20475;-77
2024/01/23 10:16:11;;;;;;;28.20;7.57;;;;;;;;;;5005632;28;20461;-77
2024/01/23 10:18:37;;;;;;;34.87;8.17;;;;;;;;;;5000248;28;20474;-77
2024/01/23 10:21:04;;;;;;;28.23;9.33;;;;;;;;;;5004206;28;20476;-78
2024/01/23 10:23:30;;;;;;;35.57;12.53;;;;;;;;;;5005136;28;20492;-77
2024/01/23 10:25:59;;;;;;;30.60;8.27;;;;;;;;;;5006048;28;20453;-78
2024/01/23 10:28:26;;;;;;;32.13;7.07;;;;;;;;;;5001316;28;20474;-79
2024/01/23 10:30:54;;;;;;;41.77;8.13;;;;;;;;;;5004652;28;20487;-78
2024/01/23 10:33:21;;;;;;;42.60;14.57;;;;;;;;;;5005436;28;20473;-77
2024/01/23 10:35:48;;;;;;;33.90;7.97;;;;;;;;;;5001839;28;20468;-77
2024/01/23 10:38:16;;;;;;;25.53;7.60;;;;;;;;;;5005531;28;20557;-78
2024/01/23 10:40:45;;;;;;;36.17;8.47;;;;;;;;;;5001644;28;20484;-78
2024/01/23 10:43:15;;;;;;;38.50;9.50;;;;;;;;;;5004765;28;20512;-78
2024/01/23 10:45:42;;;;;;;29.77;7.50;;;;;;;;;;5001985;28;20487;-77
2024/01/23 10:48:10;;;;;;;26.30;6.97;;;;;;;;;;5002990;28;20492;-81
2024/01/23 10:50:38;;;;;;;36.70;9.00;;;;;;;;;;5006995;28;20493;-77
2024/01/23 10:53:06;;;;;;;32.37;7.57;;;;;;;;;;5004237;28;20470;-79
2024/01/23 10:55:32;;;;;;;24.73;7.50;;;;;;;;;;5001902;28;20548;-78
2024/01/23 10:58:03;;;;;;;24.30;8.10;;;;;;;;;;5002481;28;20561;-77
2024/01/23 11:00:32;;;;;;;40.77;8.80;;;;;;;;;;5005118;28;20465;-83
2024/01/23 11:02:59;;;;;;;35.70;8.97;;;;;;;;;;5003049;28;20585;-78
2024/01/23 11:05:29;;;;;;;37.00;9.63;;;;;;;;;;5006664;28;20441;-77
2024/01/23 11:07:58;;;;;;;29.27;7.40;;;;;;;;;;5003635;28;20538;-77
2024/01/23 11:10:27;;;;;;;30.87;6.87;;;;;;;;;;5004065;28;20486;-77
2024/01/23 11:13:01;;;;;;;32.13;7.87;;;;;;;;;;5004227;28;20473;-77
2024/01/23 11:15:27;;;;;;;28.43;8.30;;;;;;;;;;5004631;28;20541;-77
2024/01/23 11:18:00;;;;;;;23.07;7.60;;;;;;;;;;5004073;28;21004;-77
2024/01/23 11:20:27;;;;;;;31.13;8.03;;;;;;;;;;5003244;28;21155;-77
2024/01/23 11:22:53;;;;;;;35.33;6.93;;;;;;;;;;5001445;28;20475;-76
2024/01/23 11:25:19;;;;;;;23.63;7.50;;;;;;;;;;5004037;28;20503;-78
2024/01/23 11:27:47;;;;;;;33.83;7.13;;;;;;;;;;5004922;28;20806;-78
2024/01/23 11:30:14;;;;;;;27.10;8.23;;;;;;;;;;5003749;28;20485;-77
2024/01/23 11:32:41;;;;;;;24.03;6.60;;;;;;;;;;5006039;28;20453;-78
2024/01/23 11:35:12;;;;;;;23.70;6.40;;;;;;;;;;5004072;28;20446;-81
2024/01/23 11:37:45;;;;;;;30.30;6.90;;;;;;;;;;5002348;28;20524;-77
2024/01/23 11:40:45;;;;;;;33.27;7.50;;;;;;;;;;5003268;28;20521;-77
2024/01/23 11:43:22;;;;;;;30.83;6.60;;;;;;;;;;4942350;29;20555;-78
2024/01/23 11:45:49;;;;;;;26.40;6.40;;;;;;;;;;4944768;29;20495;-77
2024/01/23 11:48:16;;;;;;;29.73;5.90;;;;;;;;;;4975530;28;20656;-77
2024/01/23 11:50:44;;;;;;;27.13;6.40;;;;;;;;;;5005675;28;20497;-79
2024/01/23 11:53:12;;;;;;;30.63;6.90;;;;;;;;;;5002861;28;21063;-80
2024/01/23 11:55:39;;;;;;;24.20;6.93;;;;;;;;;;5002992;28;20477;-82
2024/01/23 11:58:07;;;;;;;21.30;5.83;;;;;;;;;;5004148;28;20501;-78
2024/01/23 12:00:33;;;;;;;23.13;6.97;;;;;;;;;;5003178;28;21015;-77
2024/01/23 12:03:01;;;;;;;29.43;6.17;;;;;;;;;;5002180;28;20476;-77
2024/01/23 12:05:27;;;;;;;23.20;5.80;;;;;;;;;;5004979;28;20454;-77
2024/01/23 12:07:56;;;;;;;24.53;7.17;;;;;;;;;;5003742;28;20464;-77
2024/01/23 12:10:24;;;;;;;19.40;7.33;;;;;;;;;;5005382;28;20496;-79
2024/01/23 12:12:52;;;;;;;20.30;6.13;;;;;;;;;;5005618;28;20541;-77
2024/01/23 12:15:18;;;;;;;32.07;6.83;;;;;;;;;;5004465;28;20447;-77
2024/01/23 12:17:49;;;;;;;21.90;6.30;;;;;;;;;;5005406;28;20525;-80
2024/01/23 12:20:16;;;;;;;31.50;6.20;;;;;;;;;;5007995;28;20964;-77
2024/01/23 12:22:44;;;;;;;29.37;6.57;;;;;;;;;;5005337;28;20946;-77
2024/01/23 12:25:12;;;;;;;30.27;9.17;;;;;;;;;;5004736;28;20538;-77
2024/01/23 12:27:39;;;;;;;30.30;8.67;;;;;;;;;;5005699;28;20445;-77
2024/01/23 12:30:07;;;;;;;23.53;7.20;;;;;;;;;;5004823;28;20461;-77
2024/01/23 12:32:34;;;;;;;20.03;7.27;;;;;;;;;;5003371;28;20451;-78
2024/01/23 12:35:01;;;;;;;28.93;7.47;;;;;;;;;;5006927;28;20438;-77
2024/01/23 12:37:29;;;;;;;24.17;6.23;;;;;;;;;;5005028;28;20446;-80
2024/01/23 12:39:55;;;;;;;22.47;6.60;;;;;;;;;;5006984;28;20842;-78
2024/01/23 12:42:24;;;;;;;25.20;7.00;;;;;;;;;;5005778;28;20560;-79
2024/01/23 12:44:50;;;;;;;21.10;6.93;;;;;;;;;;5006766;28;20493;-77
2024/01/23 12:47:17;;;;;;;22.37;7.57;;;;;;;;;;5008538;28;20821;-78
2024/01/23 12:49:45;;;;;;;21.33;7.40;;;;;;;;;;5005222;28;20561;-77
2024/01/23 12:52:15;;;;;;;24.83;7.77;;;;;;;;;;5007532;28;20846;-77
2024/01/23 12:54:42;;;;;;;32.93;7.93;;;;;;;;;;5004761;28;20480;-80
2024/01/23 12:57:08;;;;;;;23.90;6.27;;;;;;;;;;5006541;28;20524;-77
2024/01/23 12:59:36;;;;;;;28.10;6.57;;;;;;;;;;5004591;28;20473;-77
2024/01/23 13:02:03;;;;;;;23.53;6.43;;;;;;;;;;5005201;28;20549;-78
2024/01/23 13:04:29;;;;;;;28.70;5.93;;;;;;;;;;5004694;28;21139;-78
2024/01/23 13:06:55;;;;;;;21.13;5.63;;;;;;;;;;5005208;28;20458;-78
2024/01/23 13:09:22;;;;;;;40.00;6.73;;;;;;;;;;5003535;28;20466;-79
2024/01/23 13:11:49;;;;;;;27.03;6.17;;;;;;;;;;5006948;28;20492;-77
2024/01/23 13:14:16;;;;;;;23.67;5.40;;;;;;;;;;5004676;28;20577;-79
2024/01/23 13:16:44;;;;;;;19.57;5.90;;;;;;;;;;5006810;28;20441;-77
2024/01/23 13:19:12;;;;;;;18.63;5.97;;;;;;;;;;5005028;28;20485;-77
2024/01/23 13:21:38;;;;;;;29.83;7.40;;;;;;;;;;5003895;28;20545;-83
2024/01/23 13:24:05;;;;;;;18.67;7.00;;;;;;;;;;5003959;28;20466;-80
2024/01/23 13:26:31;;;;;;;27.40;6.63;;;;;;;;;;5005036;28;20444;-77
2024/01/23 13:28:59;;;;;;;22.10;7.47;;;;;;;;;;5004134;28;20472;-78
2024/01/23 13:31:27;;;;;;;21.90;5.83;;;;;;;;;;5004254;28;20485;-77
2024/01/23 13:33:55;;;;;;;48.37;15.53;;;;;;;;;;5005408;28;20562;-77
2024/01/23 13:36:23;;;;;;;47.63;17.90;;;;;;;;;;5005616;28;20529;-79
2024/01/23 13:38:49;;;;;;;29.00;8.63;;;;;;;;;;5005545;28;20550;-77
2024/01/23 13:41:16;;;;;;;31.93;9.30;;;;;;;;;;5005752;28;20548;-78
2024/01/23 13:43:43;;;;;;;31.63;7.07;;;;;;;;;;5004168;28;20469;-78
2024/01/23 13:46:09;;;;;;;17.77;6.10;;;;;;;;;;5004827;28;20479;-76
2024/01/23 13:48:37;;;;;;;28.27;8.37;;;;;;;;;;5003464;28;20484;-79
2024/01/23 13:51:07;;;;;;;33.73;5.77;;;;;;;;;;5003503;28;20492;-77
2024/01/23 13:53:33;;;;;;;21.60;6.37;;;;;;;;;;5002871;28;20539;-81
2024/01/23 13:56:00;;;;;;;34.10;7.30;;;;;;;;;;5006168;28;20450;-77
2024/01/23 13:58:27;;;;;;;29.67;6.70;;;;;;;;;;5003922;28;21084;-77
2024/01/23 14:00:53;;;;;;;29.63;5.83;;;;;;;;;;5004668;28;20837;-77
2024/01/23 14:03:20;;;;;;;23.57;6.10;;;;;;;;;;5005908;28;20475;-81
2024/01/23 14:05:46;;;;;;;29.07;6.77;;;;;;;;;;5003315;28;20438;-77
2024/01/23 14:08:14;;;;;;;16.77;4.87;;;;;;;;;;5004285;28;20534;-77
2024/01/23 14:10:43;;;;;;;14.30;5.37;;;;;;;;;;5004283;28;20493;-78
2024/01/23 14:13:11;;;;;;;19.60;7.10;;;;;;;;;;5003075;28;20474;-77
2024/01/23 14:15:37;;;;;;;23.90;6.00;;;;;;;;;;5002493;28;20449;-77
2024/01/23 14:18:04;;;;;;;17.60;5.73;;;;;;;;;;5003067;28;20489;-77
2024/01/23 14:20:30;;;;;;;29.00;6.30;;;;;;;;;;5003908;28;20552;-77
2024/01/23 14:23:00;;;;;;;18.63;4.93;;;;;;;;;;5003714;28;20916;-77
2024/01/23 14:25:28;;;;;;;25.97;6.03;;;;;;;;;;5003308;28;20482;-78
2024/01/23 14:27:54;;;;;;;21.63;5.27;;;;;;;;;;5005475;28;20520;-77
2024/01/23 14:30:21;;;;;;;24.77;5.77;;;;;;;;;;5003211;28;20840;-77